Long Grove, Illinois
Current Conditions -  °F | °C
As of 4:52 PM on Thursday 20 Nov 2014 (Local Time) from KPWK Reporting Station
Clear Clear  
Wind Chill: 12°   Ceiling: Unl
Heat Index: 23°   Visibility: 10mi
Dew Point:   Wind: 12mph
Humidity: 40%   Direction: 280°W
Pressure: 30.14"   Gusts: NA
Location:  42.18°N, 88°W
Report Text: KPWK 202252Z 28010KT 10SM CLR M05/M17 A3014 RMK AO2 SLP218 T10501167
Loading
Personal Weather Stations






























Interactive Weather Map New forecast layout! Learn more

10-Day Weather Forecast

Advertisements
Track Severe Weather on mobile